createdAt,value
2023-04-25T00:00:36.260Z,0.00
2023-04-25T00:01:36.224Z,0.00
2023-04-25T00:02:36.410Z,0.00
2023-04-25T00:03:36.427Z,0.00
2023-04-25T00:04:36.639Z,0.00
2023-04-25T00:05:36.197Z,0.00
2023-04-25T00:06:36.160Z,0.00
2023-04-25T00:07:36.192Z,0.00
2023-04-25T00:08:36.147Z,0.00
2023-04-25T00:09:36.128Z,0.00
2023-04-25T00:10:36.110Z,0.00
2023-04-25T00:11:36.106Z,0.00
2023-04-25T00:12:36.078Z,0.00
2023-04-25T00:13:36.118Z,0.00
2023-04-25T00:14:36.061Z,0.00
2023-04-25T00:15:36.047Z,0.00
2023-04-25T00:16:36.171Z,0.00
2023-04-25T00:17:36.099Z,0.00
2023-04-25T00:18:36.029Z,0.00
2023-04-25T00:19:36.050Z,0.00
2023-04-25T00:20:35.998Z,0.00
2023-04-25T00:21:36.001Z,0.00
2023-04-25T00:22:35.976Z,0.00
2023-04-25T00:23:35.976Z,0.00
2023-04-25T00:24:35.982Z,0.00
2023-04-25T00:25:35.961Z,0.00
2023-04-25T00:26:35.927Z,0.00
2023-04-25T00:27:35.917Z,0.00
2023-04-25T00:28:35.914Z,0.00
2023-04-25T00:29:35.895Z,0.00
2023-04-25T00:30:35.904Z,0.00
2023-04-25T00:31:36.017Z,0.00
2023-04-25T00:32:35.892Z,0.00
2023-04-25T00:33:35.895Z,0.00
2023-04-25T00:34:35.841Z,0.00
2023-04-25T00:35:35.854Z,0.00
2023-04-25T00:36:35.846Z,0.00
2023-04-25T00:37:35.835Z,0.00
2023-04-25T00:38:35.815Z,0.00
2023-04-25T00:39:35.798Z,0.00
2023-04-25T00:40:35.789Z,0.00
2023-04-25T00:41:35.772Z,0.00
2023-04-25T00:42:35.753Z,0.00
2023-04-25T00:43:35.755Z,0.00
2023-04-25T00:44:35.726Z,0.00
2023-04-25T00:45:35.874Z,0.00
2023-04-25T00:46:35.725Z,0.00
2023-04-25T00:47:35.730Z,0.00
2023-04-25T00:48:35.694Z,0.00
2023-04-25T00:49:35.702Z,0.00
2023-04-25T00:50:35.680Z,0.00
2023-04-25T00:51:35.686Z,0.00
2023-04-25T00:52:35.662Z,0.00
2023-04-25T00:53:35.632Z,0.00
2023-04-25T00:54:35.616Z,0.00
2023-04-25T00:55:35.656Z,0.00
2023-04-25T00:56:35.599Z,0.00
2023-04-25T00:57:35.611Z,0.00
2023-04-25T00:58:35.576Z,0.00
2023-04-25T00:59:35.568Z,0.00
2023-04-25T01:00:35.569Z,0.00
2023-04-25T01:01:35.563Z,0.00
2023-04-25T01:02:35.682Z,0.00
2023-04-25T01:03:35.680Z,0.00
2023-04-25T01:04:35.548Z,0.00
2023-04-25T01:05:35.532Z,0.00
2023-04-25T01:06:35.491Z,0.00
2023-04-25T01:07:35.486Z,0.00
2023-04-25T01:08:35.470Z,0.00
2023-04-25T01:09:35.472Z,0.00
2023-04-25T01:10:35.466Z,0.00
2023-04-25T01:11:35.441Z,0.00
2023-04-25T01:12:35.467Z,0.00
2023-04-25T01:13:35.432Z,0.00
2023-04-25T01:14:35.406Z,0.00
2023-04-25T01:15:35.394Z,0.00
2023-04-25T01:16:35.426Z,0.00
2023-04-25T01:17:35.420Z,0.00
2023-04-25T01:18:35.394Z,0.00
2023-04-25T01:19:35.353Z,0.00
2023-04-25T01:20:35.344Z,0.00
2023-04-25T01:21:35.367Z,0.00
2023-04-25T01:22:35.322Z,0.00
2023-04-25T01:23:35.310Z,0.00
2023-04-25T01:24:35.317Z,0.00
2023-04-25T01:25:35.369Z,0.00
2023-04-25T01:26:35.269Z,0.00
2023-04-25T01:27:35.264Z,0.00
2023-04-25T01:28:35.259Z,0.00
2023-04-25T01:29:35.241Z,0.00
2023-04-25T01:30:35.224Z,0.00
2023-04-25T01:31:35.275Z,0.00
2023-04-25T01:32:35.232Z,0.00
2023-04-25T01:33:35.199Z,0.00
2023-04-25T01:34:35.202Z,0.00
2023-04-25T01:35:35.194Z,0.00
2023-04-25T01:36:35.160Z,0.00
2023-04-25T01:37:35.236Z,0.00
2023-04-25T01:38:35.143Z,0.00
2023-04-25T01:39:35.130Z,0.00
2023-04-25T01:40:35.113Z,0.00
2023-04-25T01:41:35.112Z,0.00
2023-04-25T01:42:35.113Z,0.00
2023-04-25T01:43:35.112Z,0.00
2023-04-25T01:44:35.073Z,0.00
2023-04-25T01:45:35.107Z,0.00
2023-04-25T01:46:35.090Z,0.00
2023-04-25T01:47:35.080Z,0.00
2023-04-25T01:48:35.044Z,0.00
2023-04-25T01:49:35.032Z,0.00
2023-04-25T01:50:35.039Z,0.00
2023-04-25T01:51:35.001Z,0.00
2023-04-25T01:52:34.999Z,0.00
2023-04-25T01:53:35.013Z,0.00
2023-04-25T01:54:34.982Z,0.00
2023-04-25T01:55:34.967Z,0.00
2023-04-25T01:56:34.957Z,0.00
2023-04-25T01:57:34.963Z,0.00
2023-04-25T01:58:34.949Z,0.00
2023-04-25T01:59:34.990Z,0.00
2023-04-25T02:00:34.901Z,0.00
2023-04-25T02:01:34.937Z,0.00
2023-04-25T02:02:35.118Z,0.00
2023-04-25T02:03:35.055Z,0.00
2023-04-25T02:04:35.024Z,0.00
2023-04-25T02:05:34.861Z,0.00
2023-04-25T02:06:34.849Z,0.00
2023-04-25T02:07:34.837Z,0.00
2023-04-25T02:08:34.861Z,0.00
2023-04-25T02:09:34.825Z,0.00
2023-04-25T02:10:34.816Z,0.00
2023-04-25T02:11:34.798Z,0.00
2023-04-25T02:12:34.881Z,0.00
2023-04-25T02:13:34.796Z,0.00
2023-04-25T02:14:34.754Z,0.00
2023-04-25T02:15:34.798Z,0.00
2023-04-25T02:16:34.859Z,0.00
2023-04-25T02:17:34.725Z,0.00
2023-04-25T02:18:34.717Z,0.00
2023-04-25T02:19:34.808Z,0.00
2023-04-25T02:20:34.693Z,0.00
2023-04-25T02:21:34.697Z,0.00
2023-04-25T02:22:34.683Z,0.00
2023-04-25T02:23:34.651Z,0.00
2023-04-25T02:24:34.677Z,0.00
2023-04-25T02:25:34.671Z,0.00
2023-04-25T02:26:34.642Z,0.00
2023-04-25T02:27:34.621Z,0.00
2023-04-25T02:28:34.628Z,0.00
2023-04-25T02:29:34.620Z,0.00
2023-04-25T02:30:34.625Z,0.00
2023-04-25T02:31:34.660Z,0.00
2023-04-25T02:32:34.609Z,0.00
2023-04-25T02:33:34.609Z,0.00
2023-04-25T02:34:34.563Z,0.00
2023-04-25T02:35:34.604Z,0.00
2023-04-25T02:36:34.539Z,0.00
2023-04-25T02:37:34.522Z,0.00
2023-04-25T02:38:34.521Z,0.00
2023-04-25T02:39:34.481Z,0.00
2023-04-25T02:40:34.481Z,0.00
2023-04-25T02:41:34.481Z,0.00
2023-04-25T02:42:34.534Z,0.00
2023-04-25T02:43:34.453Z,0.00
2023-04-25T02:44:34.436Z,0.00
2023-04-25T02:45:34.428Z,0.00
2023-04-25T02:46:39.524Z,0.00
2023-04-25T02:47:34.468Z,0.00
2023-04-25T02:48:34.429Z,0.00
2023-04-25T02:49:34.426Z,0.00
2023-04-25T02:50:34.359Z,0.00
2023-04-25T02:51:34.394Z,0.00
2023-04-25T02:52:34.336Z,0.00
2023-04-25T02:53:34.330Z,0.00
2023-04-25T02:54:34.343Z,0.00
2023-04-25T02:55:34.345Z,0.00
2023-04-25T02:56:34.304Z,0.00
2023-04-25T02:57:34.315Z,0.00
2023-04-25T02:58:34.291Z,0.00
2023-04-25T02:59:34.294Z,0.00
2023-04-25T03:00:34.282Z,0.00
2023-04-25T03:01:34.257Z,0.00
2023-04-25T03:02:34.277Z,0.00
2023-04-25T03:03:34.300Z,0.00
2023-04-25T03:04:34.289Z,0.00
2023-04-25T03:05:34.217Z,0.00
2023-04-25T03:06:34.230Z,0.00
2023-04-25T03:07:34.184Z,0.00
2023-04-25T03:08:34.166Z,0.00
2023-04-25T03:09:34.163Z,0.00
2023-04-25T03:10:34.145Z,0.00
2023-04-25T03:11:34.150Z,0.00
2023-04-25T03:12:34.137Z,0.00
2023-04-25T03:13:34.127Z,0.00
2023-04-25T03:14:34.110Z,0.00
2023-04-25T03:15:34.111Z,0.00
2023-04-25T03:16:34.122Z,0.00
2023-04-25T03:17:34.168Z,0.00
2023-04-25T03:18:34.067Z,0.00
2023-04-25T03:19:34.072Z,0.00
2023-04-25T03:20:34.080Z,0.00
2023-04-25T03:21:34.023Z,0.00
2023-04-25T03:22:34.061Z,0.00
2023-04-25T03:23:34.023Z,0.00
2023-04-25T03:24:34.002Z,0.00
2023-04-25T03:25:34.020Z,0.00
2023-04-25T03:26:33.987Z,0.00
2023-04-25T03:27:33.961Z,0.00
2023-04-25T03:28:33.966Z,0.00
2023-04-25T03:29:33.955Z,0.00
2023-04-25T03:30:33.930Z,0.00
2023-04-25T03:31:34.110Z,0.00
2023-04-25T03:32:33.958Z,0.00
2023-04-25T03:33:33.894Z,0.00
2023-04-25T03:34:33.882Z,0.00
2023-04-25T03:35:33.877Z,0.00
2023-04-25T03:36:33.884Z,0.00
2023-04-25T03:37:33.870Z,0.00
2023-04-25T03:38:33.849Z,0.00
2023-04-25T03:39:33.837Z,0.00
2023-04-25T03:40:33.829Z,0.00
2023-04-25T03:41:33.830Z,0.00
2023-04-25T03:42:33.818Z,0.00
2023-04-25T03:43:33.819Z,0.00
2023-04-25T03:44:33.783Z,0.00
2023-04-25T03:45:33.869Z,0.00
2023-04-25T03:46:33.800Z,0.00
2023-04-25T03:47:33.815Z,0.00
2023-04-25T03:48:33.742Z,0.00
2023-04-25T03:49:33.745Z,0.00
2023-04-25T03:50:33.713Z,0.00
2023-04-25T03:51:33.735Z,0.00
2023-04-25T03:52:33.693Z,0.00
2023-04-25T03:53:33.704Z,0.00
2023-04-25T03:54:33.676Z,0.00
2023-04-25T03:55:33.665Z,0.00
2023-04-25T03:56:33.693Z,0.00
2023-04-25T03:57:33.672Z,0.00
2023-04-25T03:58:33.626Z,0.00
2023-04-25T03:59:33.635Z,0.00
2023-04-25T04:00:33.610Z,0.00
2023-04-25T04:01:33.610Z,4.00
2023-04-25T04:02:33.777Z,4.00
2023-04-25T04:03:33.972Z,0.00
2023-04-25T04:04:33.960Z,0.00
2023-04-25T04:05:33.684Z,0.00
2023-04-25T04:06:33.541Z,0.00
2023-04-25T04:07:33.528Z,4.00
2023-04-25T04:08:33.532Z,4.00
2023-04-25T04:09:33.529Z,0.00
2023-04-25T04:10:33.504Z,4.00
2023-04-25T04:11:33.499Z,0.00
2023-04-25T04:12:33.474Z,4.00
2023-04-25T04:13:33.474Z,4.00
2023-04-25T04:14:33.473Z,4.00
2023-04-25T04:15:33.482Z,4.00
2023-04-25T04:16:34.541Z,4.00
2023-04-25T04:17:33.454Z,4.00
2023-04-25T04:18:33.416Z,4.00
2023-04-25T04:19:33.401Z,4.00
2023-04-25T04:20:33.437Z,8.00
2023-04-25T04:21:33.378Z,4.00
2023-04-25T04:22:33.388Z,8.00
2023-04-25T04:23:33.351Z,8.00
2023-04-25T04:24:33.345Z,8.00
2023-04-25T04:25:33.366Z,8.00
2023-04-25T04:26:33.345Z,8.00
2023-04-25T04:27:33.345Z,12.00
2023-04-25T04:28:33.301Z,12.00
2023-04-25T04:29:33.308Z,12.00
2023-04-25T04:30:33.288Z,12.00
2023-04-25T04:31:33.334Z,12.00
2023-04-25T04:32:33.329Z,16.00
2023-04-25T04:33:33.267Z,16.00
2023-04-25T04:34:33.258Z,16.00
2023-04-25T04:35:33.226Z,16.00
2023-04-25T04:36:33.226Z,20.00
2023-04-25T04:37:33.201Z,20.00
2023-04-25T04:38:33.212Z,24.00
2023-04-25T04:39:33.199Z,24.00
2023-04-25T04:40:33.200Z,28.00
2023-04-25T04:41:33.161Z,24.00
2023-04-25T04:42:33.181Z,24.00
2023-04-25T04:43:33.147Z,20.00
2023-04-25T04:44:33.145Z,20.00
2023-04-25T04:45:33.114Z,24.00
2023-04-25T04:46:33.190Z,24.00
2023-04-25T04:47:33.132Z,24.00
2023-04-25T04:48:33.088Z,28.00
2023-04-25T04:49:33.091Z,32.00
2023-04-25T04:50:33.081Z,36.00
2023-04-25T04:51:33.076Z,40.00
2023-04-25T04:52:33.047Z,44.00
2023-04-25T04:53:33.048Z,44.00
2023-04-25T04:54:33.068Z,48.00
2023-04-25T04:55:33.011Z,52.00
2023-04-25T04:56:33.038Z,56.00
2023-04-25T04:57:33.005Z,64.00
2023-04-25T04:58:32.978Z,68.00
2023-04-25T04:59:32.970Z,76.00
2023-04-25T05:00:33.017Z,84.00
2023-04-25T05:01:32.941Z,92.00
2023-04-25T05:02:33.068Z,96.00
2023-04-25T05:03:33.129Z,104.00
2023-04-25T05:04:32.958Z,108.00
2023-04-25T05:05:40.469Z,116.00
2023-04-25T05:06:32.899Z,124.00
2023-04-25T05:07:32.890Z,128.00
2023-04-25T05:08:32.899Z,140.00
2023-04-25T05:09:32.886Z,144.00
2023-04-25T05:10:32.862Z,156.00
2023-04-25T05:11:32.836Z,164.00
2023-04-25T05:12:33.710Z,172.00
2023-04-25T05:13:32.825Z,176.00
2023-04-25T05:14:32.828Z,184.00
2023-04-25T05:15:32.828Z,196.00
2023-04-25T05:16:32.834Z,204.00
2023-04-25T05:17:32.848Z,212.00
2023-04-25T05:18:32.761Z,220.00
2023-04-25T05:19:32.769Z,224.00
2023-04-25T05:20:32.749Z,228.00
2023-04-25T05:21:32.769Z,228.00
2023-04-25T05:22:32.741Z,236.00
2023-04-25T05:23:33.450Z,236.00
2023-04-25T05:24:32.710Z,236.00
2023-04-25T05:25:32.702Z,232.00
2023-04-25T05:26:32.682Z,228.00
2023-04-25T05:27:32.732Z,228.00
2023-04-25T05:28:32.669Z,228.00
2023-04-25T05:29:32.666Z,232.00
2023-04-25T05:30:32.641Z,232.00
2023-04-25T05:31:32.681Z,228.00
2023-04-25T05:32:32.660Z,228.00
2023-04-25T05:33:32.690Z,228.00
2023-04-25T05:34:32.607Z,236.00
2023-04-25T05:35:32.705Z,248.00
2023-04-25T05:36:32.566Z,252.00
2023-04-25T05:37:32.597Z,256.00
2023-04-25T05:38:34.625Z,260.00
2023-04-25T05:39:32.569Z,264.00
2023-04-25T05:40:32.567Z,268.00
2023-04-25T05:41:32.521Z,272.00
2023-04-25T05:42:32.504Z,284.00
2023-04-25T05:43:32.491Z,300.00
2023-04-25T05:44:32.513Z,304.00
2023-04-25T05:45:32.502Z,324.00
2023-04-25T05:46:32.692Z,364.00
2023-04-25T05:47:32.525Z,376.00
2023-04-25T05:48:32.449Z,396.00
2023-04-25T05:49:32.436Z,396.00
2023-04-25T05:50:32.417Z,364.00
2023-04-25T05:51:32.420Z,372.00
2023-04-25T05:52:32.397Z,372.00
2023-04-25T05:53:32.428Z,352.00
2023-04-25T05:54:32.374Z,344.00
2023-04-25T05:55:32.351Z,324.00
2023-04-25T05:56:32.349Z,352.00
2023-04-25T05:57:32.378Z,340.00
2023-04-25T05:58:32.331Z,308.00
2023-04-25T05:59:32.343Z,320.00
2023-04-25T06:00:32.345Z,432.00
2023-04-25T06:01:32.307Z,452.00
2023-04-25T06:02:32.496Z,488.00
2023-04-25T06:03:32.579Z,532.00
2023-04-25T06:04:32.494Z,648.00
2023-04-25T06:05:32.421Z,720.00
2023-04-25T06:06:32.266Z,672.00
2023-04-25T06:07:32.229Z,516.00
2023-04-25T06:08:32.230Z,400.00
2023-04-25T06:09:32.226Z,372.00
2023-04-25T06:10:32.206Z,288.00
2023-04-25T06:11:32.238Z,280.00
2023-04-25T06:12:32.186Z,268.00
2023-04-25T06:13:32.185Z,264.00
2023-04-25T06:14:32.166Z,296.00
2023-04-25T06:15:32.184Z,496.00
2023-04-25T06:16:32.321Z,604.00
2023-04-25T06:17:32.182Z,588.00
2023-04-25T06:18:32.135Z,408.00
2023-04-25T06:19:32.096Z,472.00
2023-04-25T06:20:32.131Z,504.00
2023-04-25T06:21:32.071Z,656.00
2023-04-25T06:22:32.078Z,592.00
2023-04-25T06:23:32.095Z,540.00
2023-04-25T06:24:32.044Z,564.00
2023-04-25T06:25:32.046Z,432.00
2023-04-25T06:26:32.023Z,444.00
2023-04-25T06:27:32.069Z,376.00
2023-04-25T06:28:32.032Z,360.00
2023-04-25T06:29:31.997Z,360.00
2023-04-25T06:30:32.000Z,372.00
2023-04-25T06:31:31.993Z,392.00
2023-04-25T06:32:32.028Z,404.00
2023-04-25T06:33:31.963Z,448.00
2023-04-25T06:34:31.932Z,508.00
2023-04-25T06:35:31.927Z,568.00
2023-04-25T06:36:31.922Z,600.00
2023-04-25T06:37:31.909Z,708.00
2023-04-25T06:38:31.934Z,816.00
2023-04-25T06:39:31.883Z,748.00
2023-04-25T06:40:31.872Z,396.00
2023-04-25T06:41:31.866Z,308.00
2023-04-25T06:42:31.871Z,268.00
2023-04-25T06:43:31.855Z,264.00
2023-04-25T06:44:31.902Z,276.00
2023-04-25T06:45:31.862Z,324.00
2023-04-25T06:46:31.826Z,348.00
2023-04-25T06:47:31.824Z,372.00
2023-04-25T06:48:31.806Z,416.00
2023-04-25T06:49:31.841Z,900.00
2023-04-25T06:50:31.775Z,472.00
2023-04-25T06:51:31.798Z,452.00
2023-04-25T06:52:31.781Z,472.00
2023-04-25T06:53:31.731Z,528.00
2023-04-25T06:54:31.715Z,560.00
2023-04-25T06:55:31.720Z,1768.00
2023-04-25T06:56:31.706Z,780.00
2023-04-25T06:57:31.697Z,516.00
2023-04-25T06:58:31.712Z,500.00
2023-04-25T06:59:31.673Z,472.00
2023-04-25T07:00:31.739Z,444.00
2023-04-25T07:01:31.840Z,440.00
2023-04-25T07:02:31.731Z,472.00
2023-04-25T07:03:31.805Z,608.00
2023-04-25T07:04:31.902Z,2136.00
2023-04-25T07:05:31.635Z,2228.00
2023-04-25T07:06:31.611Z,1992.00
2023-04-25T07:07:31.596Z,2256.00
2023-04-25T07:08:31.568Z,2324.00
2023-04-25T07:09:31.548Z,2224.00
2023-04-25T07:10:31.616Z,2596.00
2023-04-25T07:11:31.552Z,2272.00
2023-04-25T07:12:31.551Z,2120.00
2023-04-25T07:13:31.605Z,2788.00
2023-04-25T07:14:31.519Z,2656.00
2023-04-25T07:15:31.510Z,2368.00
2023-04-25T07:16:31.525Z,2912.00
2023-04-25T07:17:31.552Z,2916.00
2023-04-25T07:18:31.482Z,3016.00
2023-04-25T07:19:31.588Z,1496.00
2023-04-25T07:20:31.430Z,1304.00
2023-04-25T07:21:31.443Z,1480.00
2023-04-25T07:22:31.432Z,1044.00
2023-04-25T07:23:31.407Z,832.00
2023-04-25T07:24:31.396Z,664.00
2023-04-25T07:25:31.382Z,568.00
2023-04-25T07:26:31.428Z,492.00
2023-04-25T07:27:31.360Z,492.00
2023-04-25T07:28:31.353Z,392.00
2023-04-25T07:29:31.422Z,336.00
2023-04-25T07:30:31.353Z,348.00
2023-04-25T07:31:31.370Z,340.00
2023-04-25T07:32:31.353Z,332.00
2023-04-25T07:33:31.316Z,336.00
2023-04-25T07:34:31.304Z,368.00
2023-04-25T07:35:31.312Z,452.00
2023-04-25T07:36:31.262Z,548.00
2023-04-25T07:37:31.265Z,616.00
2023-04-25T07:38:31.272Z,680.00
2023-04-25T07:39:31.243Z,688.00
2023-04-25T07:40:31.245Z,704.00
2023-04-25T07:41:31.258Z,716.00
2023-04-25T07:42:31.206Z,772.00
2023-04-25T07:43:31.181Z,824.00
2023-04-25T07:44:31.171Z,820.00
2023-04-25T07:45:31.262Z,732.00
2023-04-25T07:46:31.174Z,660.00
2023-04-25T07:47:31.220Z,572.00
2023-04-25T07:48:31.171Z,488.00
2023-04-25T07:49:31.125Z,408.00
2023-04-25T07:50:31.141Z,340.00
2023-04-25T07:51:31.101Z,300.00
2023-04-25T07:52:31.095Z,276.00
2023-04-25T07:53:31.097Z,272.00
2023-04-25T07:54:31.080Z,300.00
2023-04-25T07:55:31.083Z,320.00
2023-04-25T07:56:41.577Z,356.00
2023-04-25T07:57:32.120Z,400.00
2023-04-25T07:58:31.054Z,444.00
2023-04-25T07:59:31.033Z,492.00
2023-04-25T08:00:30.996Z,528.00
2023-04-25T08:01:31.035Z,556.00
2023-04-25T08:02:31.040Z,584.00
2023-04-25T08:03:31.246Z,592.00
2023-04-25T08:04:31.068Z,672.00
2023-04-25T08:05:31.016Z,844.00
2023-04-25T08:06:31.051Z,1032.00
2023-04-25T08:07:30.948Z,1260.00
2023-04-25T08:08:30.931Z,1320.00
2023-04-25T08:09:30.973Z,1124.00
2023-04-25T08:10:30.940Z,1128.00
2023-04-25T08:11:30.888Z,1212.00
2023-04-25T08:12:30.916Z,1044.00
2023-04-25T08:13:30.920Z,1064.00
2023-04-25T08:14:30.848Z,1180.00
2023-04-25T08:15:30.939Z,996.00
2023-04-25T08:16:30.993Z,972.00
2023-04-25T08:17:30.848Z,884.00
2023-04-25T08:18:30.801Z,804.00
2023-04-25T08:19:30.936Z,712.00
2023-04-25T08:20:30.791Z,648.00
2023-04-25T08:21:30.785Z,588.00
2023-04-25T08:22:30.778Z,552.00
2023-04-25T08:23:30.781Z,520.00
2023-04-25T08:24:30.742Z,496.00
2023-04-25T08:25:30.844Z,476.00
2023-04-25T08:26:30.751Z,460.00
2023-04-25T08:27:30.705Z,460.00
2023-04-25T08:28:30.709Z,488.00
2023-04-25T08:29:30.687Z,532.00
2023-04-25T08:30:30.756Z,588.00
2023-04-25T08:31:30.702Z,660.00
2023-04-25T08:32:31.071Z,712.00
2023-04-25T08:33:30.671Z,812.00
2023-04-25T08:34:30.638Z,740.00
2023-04-25T08:35:30.873Z,748.00
2023-04-25T08:36:39.456Z,684.00
2023-04-25T08:37:31.594Z,620.00
2023-04-25T08:38:30.610Z,552.00
2023-04-25T08:39:30.652Z,504.00
2023-04-25T08:40:30.565Z,464.00
2023-04-25T08:41:30.597Z,424.00
2023-04-25T08:42:30.732Z,392.00
2023-04-25T08:43:30.811Z,372.00
2023-04-25T08:44:30.527Z,352.00
2023-04-25T08:45:30.559Z,352.00
2023-04-25T08:46:30.636Z,368.00
2023-04-25T08:47:30.570Z,372.00
2023-04-25T08:48:30.513Z,348.00
2023-04-25T08:49:30.508Z,316.00
2023-04-25T08:50:30.522Z,296.00
2023-04-25T08:51:30.474Z,288.00
2023-04-25T08:52:30.660Z,288.00
2023-04-25T08:53:30.929Z,284.00
2023-04-25T08:54:35.686Z,280.00
2023-04-25T08:55:31.489Z,280.00
2023-04-25T08:56:31.109Z,280.00
2023-04-25T08:57:30.427Z,276.00
2023-04-25T08:58:30.449Z,264.00
2023-04-25T08:59:30.401Z,264.00
2023-04-25T09:00:30.710Z,276.00
2023-04-25T09:01:30.457Z,292.00
2023-04-25T09:02:30.488Z,304.00
2023-04-25T09:03:30.791Z,316.00
2023-04-25T09:04:30.284Z,328.00
2023-04-25T09:05:30.421Z,344.00
2023-04-25T09:06:30.275Z,352.00
2023-04-25T09:07:30.256Z,364.00
2023-04-25T09:08:30.240Z,380.00
2023-04-25T09:09:30.269Z,408.00
2023-04-25T09:11:30.215Z,504.00
2023-04-25T09:12:30.227Z,556.00
2023-04-25T09:13:30.189Z,600.00
2023-04-25T09:14:30.179Z,640.00
2023-04-25T09:15:30.218Z,692.00
2023-04-25T09:16:30.184Z,756.00
2023-04-25T09:17:30.228Z,808.00
2023-04-25T09:18:30.719Z,888.00
2023-04-25T09:19:39.539Z,980.00
2023-04-25T09:20:31.795Z,1064.00
2023-04-25T09:21:30.163Z,1360.00
2023-04-25T09:22:30.084Z,1188.00
2023-04-25T09:23:30.088Z,2884.00
2023-04-25T09:24:30.082Z,2708.00
2023-04-25T09:25:30.056Z,2296.00
2023-04-25T09:26:30.068Z,2732.00
2023-04-25T09:27:30.050Z,1860.00
2023-04-25T09:28:31.050Z,2068.00
2023-04-25T09:29:30.023Z,2388.00
2023-04-25T09:30:30.003Z,1920.00
2023-04-25T09:31:30.037Z,1884.00
2023-04-25T09:32:30.206Z,1512.00
2023-04-25T09:33:30.010Z,1304.00
2023-04-25T09:34:29.953Z,1184.00
2023-04-25T09:35:29.970Z,1096.00
2023-04-25T09:36:29.959Z,1052.00
2023-04-25T09:37:29.956Z,1020.00
2023-04-25T09:38:29.915Z,968.00
2023-04-25T09:39:29.899Z,948.00
2023-04-25T09:40:29.948Z,972.00
2023-04-25T09:41:29.875Z,1028.00
2023-04-25T09:42:29.984Z,1084.00
2023-04-25T09:43:29.890Z,1132.00
2023-04-25T09:44:29.864Z,1140.00
2023-04-25T09:45:29.856Z,1084.00
2023-04-25T09:46:30.000Z,1072.00
2023-04-25T09:47:29.835Z,1100.00
2023-04-25T09:48:29.832Z,1152.00
2023-04-25T09:49:29.816Z,1292.00
2023-04-25T09:50:29.779Z,1172.00
2023-04-25T09:51:29.774Z,836.00
2023-04-25T09:52:29.832Z,708.00
2023-04-25T09:53:29.810Z,652.00
2023-04-25T09:54:29.764Z,612.00
2023-04-25T09:55:29.791Z,568.00
2023-04-25T09:56:29.778Z,528.00
2023-04-25T09:57:29.728Z,524.00
2023-04-25T09:58:31.843Z,588.00
2023-04-25T09:59:29.684Z,744.00
2023-04-25T10:00:29.689Z,976.00
2023-04-25T10:01:29.728Z,1388.00
2023-04-25T10:02:29.732Z,2496.00
2023-04-25T10:03:30.015Z,2828.00
2023-04-25T10:04:31.574Z,1208.00
2023-04-25T10:05:29.677Z,1040.00
2023-04-25T10:06:29.605Z,996.00
2023-04-25T10:07:29.601Z,1088.00
2023-04-25T10:08:29.584Z,876.00
2023-04-25T10:09:29.734Z,820.00
2023-04-25T10:10:31.570Z,796.00
2023-04-25T10:11:29.567Z,760.00
2023-04-25T10:12:29.539Z,752.00
2023-04-25T10:13:29.537Z,764.00
2023-04-25T10:14:29.546Z,780.00
2023-04-25T10:15:29.588Z,784.00
2023-04-25T10:16:29.615Z,772.00
2023-04-25T10:17:29.659Z,788.00
2023-04-25T10:18:29.483Z,888.00
2023-04-25T10:19:29.485Z,1040.00
2023-04-25T10:20:29.459Z,1072.00
2023-04-25T10:21:29.501Z,1040.00
2023-04-25T10:22:29.472Z,996.00
2023-04-25T10:23:29.424Z,924.00
2023-04-25T10:24:29.404Z,832.00
2023-04-25T10:25:29.441Z,776.00
2023-04-25T10:26:31.214Z,748.00
2023-04-25T10:27:29.418Z,728.00
2023-04-25T10:28:29.372Z,700.00
2023-04-25T10:29:29.384Z,652.00
2023-04-25T10:30:29.380Z,600.00
2023-04-25T10:31:29.412Z,560.00
2023-04-25T10:32:31.167Z,532.00
2023-04-25T10:33:29.327Z,520.00
2023-04-25T10:34:29.311Z,508.00
2023-04-25T10:35:29.306Z,488.00
2023-04-25T10:36:29.310Z,480.00
2023-04-25T10:37:29.309Z,476.00
2023-04-25T10:38:29.271Z,472.00
2023-04-25T10:39:29.256Z,472.00
2023-04-25T10:40:29.275Z,480.00
2023-04-25T10:41:29.247Z,500.00
2023-04-25T10:42:29.206Z,536.00
2023-04-25T10:43:29.233Z,584.00
2023-04-25T10:44:29.191Z,644.00
2023-04-25T10:45:29.218Z,708.00
2023-04-25T10:46:29.197Z,772.00
2023-04-25T10:47:29.182Z,848.00
2023-04-25T10:48:29.135Z,964.00
2023-04-25T10:49:29.150Z,1068.00
2023-04-25T10:50:29.123Z,1124.00
2023-04-25T10:51:34.556Z,1172.00
2023-04-25T10:52:30.104Z,1180.00
2023-04-25T10:53:29.108Z,1228.00
2023-04-25T10:54:29.087Z,1280.00
2023-04-25T10:55:29.097Z,1340.00
2023-04-25T10:56:29.117Z,1412.00
2023-04-25T10:57:29.174Z,1624.00
2023-04-25T10:58:29.030Z,1492.00
2023-04-25T10:59:29.047Z,1408.00
2023-04-25T11:00:38.398Z,1276.00
2023-04-25T11:01:30.181Z,1128.00
2023-04-25T11:02:29.121Z,1016.00
2023-04-25T11:03:29.132Z,936.00
2023-04-25T11:04:29.178Z,940.00
2023-04-25T11:05:29.014Z,900.00
2023-04-25T11:06:36.807Z,792.00
2023-04-25T11:07:28.947Z,660.00
2023-04-25T11:08:28.938Z,564.00
2023-04-25T11:09:28.925Z,500.00
2023-04-25T11:10:28.909Z,460.00
2023-04-25T11:11:28.893Z,432.00
2023-04-25T11:12:28.882Z,408.00
2023-04-25T11:13:28.891Z,396.00
2023-04-25T11:14:28.890Z,388.00
2023-04-25T11:15:28.890Z,404.00
2023-04-25T11:16:29.206Z,444.00
2023-04-25T11:17:28.923Z,508.00
2023-04-25T11:18:29.009Z,636.00
2023-04-25T11:19:28.821Z,884.00
2023-04-25T11:20:28.809Z,1956.00
2023-04-25T11:21:28.908Z,1320.00
2023-04-25T11:22:28.797Z,1168.00
2023-04-25T11:23:28.832Z,1160.00
2023-04-25T11:24:28.765Z,932.00
2023-04-25T11:25:28.749Z,2780.00
2023-04-25T11:26:28.789Z,2764.00
2023-04-25T11:27:28.737Z,2808.00
2023-04-25T11:28:28.768Z,2444.00
2023-04-25T11:29:28.756Z,1288.00
2023-04-25T11:30:28.708Z,1256.00
2023-04-25T11:31:28.741Z,1152.00
2023-04-25T11:32:28.728Z,1480.00
2023-04-25T11:33:28.746Z,1196.00
2023-04-25T11:34:28.640Z,1028.00
2023-04-25T11:35:28.761Z,972.00
2023-04-25T11:36:28.645Z,1016.00
2023-04-25T11:37:28.630Z,1052.00
2023-04-25T11:38:29.418Z,1256.00
2023-04-25T11:39:28.608Z,1004.00
2023-04-25T11:40:28.578Z,944.00
2023-04-25T11:41:28.664Z,872.00
2023-04-25T11:42:28.565Z,996.00
2023-04-25T11:43:28.551Z,1604.00
2023-04-25T11:44:28.538Z,960.00
2023-04-25T11:45:28.578Z,824.00
2023-04-25T11:46:28.590Z,708.00
2023-04-25T11:47:28.653Z,616.00
2023-04-25T11:48:28.515Z,544.00
2023-04-25T11:49:28.924Z,500.00
2023-04-25T11:50:28.487Z,464.00
2023-04-25T11:51:28.504Z,432.00
2023-04-25T11:52:28.445Z,400.00
2023-04-25T11:53:28.556Z,368.00
2023-04-25T11:54:28.426Z,340.00
2023-04-25T11:55:28.430Z,312.00
2023-04-25T11:56:28.407Z,280.00
2023-04-25T11:57:28.383Z,256.00
2023-04-25T11:58:28.397Z,232.00
2023-04-25T11:59:28.440Z,212.00
2023-04-25T12:00:28.361Z,196.00
2023-04-25T12:01:29.783Z,188.00
2023-04-25T12:02:28.394Z,180.00
2023-04-25T12:03:28.489Z,168.00
2023-04-25T12:04:28.520Z,164.00
2023-04-25T12:05:32.709Z,160.00
2023-04-25T12:06:29.380Z,156.00
2023-04-25T12:07:28.280Z,152.00
2023-04-25T12:08:28.289Z,152.00
2023-04-25T12:09:28.271Z,148.00
2023-04-25T12:10:28.286Z,148.00
2023-04-25T12:11:28.299Z,148.00
2023-04-25T12:12:28.240Z,148.00
2023-04-25T12:13:28.228Z,152.00
2023-04-25T12:14:28.466Z,156.00
2023-04-25T12:15:28.192Z,168.00
2023-04-25T12:16:28.213Z,180.00
2023-04-25T12:17:28.284Z,204.00
2023-04-25T12:18:28.183Z,240.00
2023-04-25T12:19:28.145Z,288.00
2023-04-25T12:20:28.144Z,356.00
2023-04-25T12:21:28.126Z,428.00
2023-04-25T12:22:28.331Z,520.00
2023-04-25T12:23:28.189Z,636.00
2023-04-25T12:24:28.703Z,748.00
2023-04-25T12:25:28.105Z,1028.00
2023-04-25T12:26:28.099Z,1412.00
2023-04-25T12:27:28.068Z,1156.00
2023-04-25T12:28:28.053Z,1588.00
2023-04-25T12:29:31.762Z,1284.00
2023-04-25T12:30:28.036Z,1256.00
2023-04-25T12:31:28.078Z,956.00
2023-04-25T12:32:28.042Z,892.00
2023-04-25T12:33:28.060Z,844.00
2023-04-25T12:34:28.025Z,832.00
2023-04-25T12:35:28.028Z,808.00
2023-04-25T12:36:27.985Z,784.00
2023-04-25T12:37:27.960Z,772.00
2023-04-25T12:38:27.970Z,768.00
2023-04-25T12:39:27.942Z,764.00
2023-04-25T12:40:27.926Z,756.00
2023-04-25T12:41:28.005Z,744.00
2023-04-25T12:42:28.008Z,728.00
2023-04-25T12:43:27.888Z,716.00
2023-04-25T12:44:27.877Z,704.00